Time;durP1;ratioP1;P1;durP2;ratioP2;P2;SDS_P1;SDS_P2;PMS_P1;PMS_P2;Temp;Humidity;BMP_temperature;BMP_pressure;BME280_temperature;BME280_humidity;BME280_pressure;Samples;Min_cycle;Max_cycle;Signal;HPM_P1;HPM_P2
2022/03/03 00:03:59;;;;;;;10.37;9.27;;;3.50;26.10;;;;;;10382050;28;20249;-75
2022/03/03 00:09:04;;;;;;;11.93;10.33;;;3.50;26.00;;;;;;10391347;28;20609;-75
2022/03/03 00:14:07;;;;;;;12.13;10.80;;;3.40;26.10;;;;;;10385914;28;20238;-75
2022/03/03 00:19:10;;;;;;;11.83;10.63;;;3.40;26.00;;;;;;10396209;28;20261;-75
2022/03/03 00:24:15;;;;;;;13.33;11.57;;;3.30;26.00;;;;;;10384880;28;20234;-75
2022/03/03 00:29:18;;;;;;;11.27;10.00;;;3.20;26.00;;;;;;10389737;28;20667;-75
2022/03/03 00:34:21;;;;;;;12.83;11.07;;;3.00;26.00;;;;;;10393075;28;20713;-75
2022/03/03 00:39:26;;;;;;;12.47;11.17;;;2.80;26.10;;;;;;10397895;28;20233;-74
2022/03/03 00:44:29;;;;;;;11.00;9.90;;;2.70;26.20;;;;;;10395785;28;20588;-75
2022/03/03 00:49:32;;;;;;;11.50;10.30;;;2.60;26.30;;;;;;10400597;28;20317;-75
2022/03/03 00:54:37;;;;;;;11.57;10.30;;;2.50;26.40;;;;;;10403249;28;20234;-75
2022/03/03 00:59:40;;;;;;;13.17;11.77;;;2.70;26.80;;;;;;10402212;28;20312;-74
2022/03/03 01:04:43;;;;;;;11.57;9.33;;;2.60;26.60;;;;;;10396359;28;20224;-74
2022/03/03 01:09:48;;;;;;;11.00;9.53;;;2.60;26.50;;;;;;10378796;28;20274;-71
2022/03/03 01:14:51;;;;;;;12.33;10.10;;;2.50;26.60;;;;;;10386758;28;20316;-71
2022/03/03 01:19:55;;;;;;;12.80;9.60;;;2.50;26.50;;;;;;10412076;28;20240;-71
2022/03/03 01:24:59;;;;;;;10.63;9.53;;;2.50;26.50;;;;;;10411913;28;20236;-71
2022/03/03 01:30:04;;;;;;;12.43;9.40;;;2.50;26.50;;;;;;10411500;28;20313;-71
2022/03/03 01:35:08;;;;;;;14.63;12.40;;;2.50;26.50;;;;;;10411868;28;20311;-71
2022/03/03 01:40:13;;;;;;;16.63;12.63;;;2.50;26.40;;;;;;10411263;28;20320;-71
2022/03/03 01:45:17;;;;;;;15.30;12.47;;;2.40;26.30;;;;;;10411477;28;20985;-71
2022/03/03 01:50:20;;;;;;;18.00;14.83;;;2.20;26.20;;;;;;10411280;28;20244;-71
2022/03/03 01:55:25;;;;;;;16.60;13.60;;;2.10;26.40;;;;;;10411041;28;20690;-71
2022/03/03 02:00:29;;;;;;;17.50;12.37;;;2.00;26.60;;;;;;10410982;28;20309;-71
2022/03/03 02:05:32;;;;;;;16.17;12.43;;;2.00;26.50;;;;;;10410429;28;20676;-71
2022/03/03 02:10:36;;;;;;;14.23;11.73;;;2.00;26.60;;;;;;10405403;28;20229;-71
2022/03/03 02:15:40;;;;;;;10.43;9.27;;;1.90;26.70;;;;;;10410352;28;20591;-71
2022/03/03 02:20:44;;;;;;;12.13;10.47;;;1.90;26.50;;;;;;10410158;28;20241;-71
2022/03/03 02:25:48;;;;;;;12.43;9.70;;;1.70;26.80;;;;;;10410228;28;20789;-71
2022/03/03 02:30:51;;;;;;;10.30;9.30;;;1.70;26.80;;;;;;10409611;28;20222;-71
2022/03/03 02:35:56;;;;;;;10.90;9.67;;;1.60;26.80;;;;;;10409530;28;20238;-71
2022/03/03 02:40:59;;;;;;;11.70;8.93;;;1.60;26.90;;;;;;10409241;28;20253;-71
2022/03/03 02:46:02;;;;;;;10.83;9.73;;;1.60;26.90;;;;;;10393027;28;20222;-71
2022/03/03 02:51:08;;;;;;;10.33;9.00;;;1.60;26.70;;;;;;10408497;28;20248;-71
2022/03/03 02:56:12;;;;;;;12.30;10.00;;;1.60;26.90;;;;;;10408628;28;20244;-71
2022/03/03 03:01:15;;;;;;;13.80;10.13;;;1.60;26.60;;;;;;10408208;28;20721;-71
2022/03/03 03:06:20;;;;;;;9.37;8.10;;;1.50;26.50;;;;;;10408168;28;20233;-71
2022/03/03 03:11:23;;;;;;;11.67;9.80;;;1.50;26.70;;;;;;10408017;28;20264;-71
2022/03/03 03:16:26;;;;;;;10.27;8.87;;;1.40;26.70;;;;;;10407985;28;20237;-71
2022/03/03 03:21:31;;;;;;;11.60;8.77;;;1.30;26.80;;;;;;10401056;28;20229;-71
2022/03/03 03:26:35;;;;;;;10.07;9.00;;;1.30;27.00;;;;;;10387623;28;20604;-74
2022/03/03 03:31:38;;;;;;;10.87;9.00;;;1.30;27.00;;;;;;10379873;28;20225;-74
2022/03/03 03:36:43;;;;;;;10.70;8.83;;;1.30;27.00;;;;;;10384105;28;20226;-74
2022/03/03 03:41:47;;;;;;;11.63;9.20;;;1.30;27.10;;;;;;10383351;28;20254;-74
2022/03/03 03:46:50;;;;;;;10.27;8.80;;;1.30;26.90;;;;;;10375178;28;20234;-74
2022/03/03 03:51:55;;;;;;;10.60;8.67;;;1.30;26.90;;;;;;10383798;28;20222;-73
2022/03/03 03:56:59;;;;;;;11.30;8.10;;;1.30;27.00;;;;;;10380882;28;20230;-74
2022/03/03 04:02:03;;;;;;;11.03;8.17;;;1.20;26.80;;;;;;10382420;28;20320;-74
2022/03/03 04:07:08;;;;;;;13.00;9.80;;;1.20;26.70;;;;;;10385187;28;20308;-73
2022/03/03 04:12:11;;;;;;;11.17;9.77;;;1.20;26.80;;;;;;10374650;28;20602;-73
2022/03/03 04:17:15;;;;;;;12.53;9.63;;;1.10;26.60;;;;;;10380899;28;20221;-73
2022/03/03 04:22:19;;;;;;;11.37;9.40;;;1.00;26.80;;;;;;10379888;28;20229;-73
2022/03/03 04:27:22;;;;;;;9.40;8.13;;;1.00;26.70;;;;;;10379884;28;20586;-74
2022/03/03 04:32:25;;;;;;;9.27;8.13;;;0.90;26.80;;;;;;10382869;28;20317;-73
2022/03/03 04:37:30;;;;;;;9.90;7.60;;;0.80;27.00;;;;;;10380706;28;21003;-73
2022/03/03 04:42:33;;;;;;;10.73;8.87;;;0.80;27.10;;;;;;10382832;28;20708;-73
2022/03/03 04:47:36;;;;;;;10.40;7.33;;;0.70;27.00;;;;;;10376778;28;20304;-73
2022/03/03 04:52:41;;;;;;;10.03;8.63;;;0.70;27.10;;;;;;10379522;28;20686;-73
2022/03/03 04:57:44;;;;;;;8.63;7.43;;;0.70;27.30;;;;;;10378904;28;20303;-73
2022/03/03 05:02:48;;;;;;;10.27;8.80;;;0.70;27.20;;;;;;10378828;28;20230;-73
2022/03/03 05:07:52;;;;;;;10.17;8.57;;;0.70;27.10;;;;;;10382413;28;20218;-73
2022/03/03 05:12:57;;;;;;;11.23;8.23;;;0.70;27.10;;;;;;10382182;28;20745;-73
2022/03/03 05:18:00;;;;;;;9.33;7.97;;;0.60;27.00;;;;;;10387531;28;20226;-73
2022/03/03 05:23:05;;;;;;;10.57;7.80;;;0.60;27.10;;;;;;10385684;28;20236;-73
2022/03/03 05:28:08;;;;;;;9.33;8.03;;;0.60;27.10;;;;;;10384001;28;20230;-74
2022/03/03 05:33:11;;;;;;;8.47;7.57;;;0.60;27.20;;;;;;10384616;28;21035;-73
2022/03/03 05:38:16;;;;;;;11.43;8.47;;;0.50;27.10;;;;;;10383625;28;20221;-73
2022/03/03 05:43:19;;;;;;;9.70;8.40;;;0.50;27.00;;;;;;10386779;28;21491;-73
2022/03/03 05:48:23;;;;;;;10.73;8.00;;;0.40;27.00;;;;;;10382168;28;20714;-73
2022/03/03 05:53:28;;;;;;;10.73;7.80;;;0.40;27.10;;;;;;10390622;28;20238;-73
2022/03/03 05:58:40;;;;;;;8.93;8.03;;;0.50;27.40;;;;;;10387593;28;20244;-74
2022/03/03 06:03:46;;;;;;;13.83;11.40;;;0.30;27.40;;;;;;10383706;28;20226;-74
2022/03/03 06:08:58;;;;;;;20.80;14.70;;;0.30;27.10;;;;;;10388022;28;20222;-74
2022/03/03 06:14:07;;;;;;;21.13;15.00;;;0.30;27.70;;;;;;10385148;28;20248;-74
2022/03/03 06:19:10;;;;;;;11.23;9.67;;;0.20;27.60;;;;;;10390099;28;20230;-74
2022/03/03 06:24:14;;;;;;;10.70;9.03;;;0.10;27.50;;;;;;10384017;28;20229;-74
2022/03/03 06:29:18;;;;;;;13.27;9.53;;;0.10;27.50;;;;;;10385456;28;20230;-74
2022/03/03 06:34:21;;;;;;;12.30;8.87;;;0.00;27.50;;;;;;10384907;28;20718;-74
2022/03/03 06:39:26;;;;;;;12.33;9.77;;;0.00;27.80;;;;;;10387293;28;20234;-74
2022/03/03 06:44:29;;;;;;;11.83;9.73;;;-0.20;28.10;;;;;;10388735;28;20234;-74
2022/03/03 06:49:32;;;;;;;12.47;10.20;;;-0.10;28.20;;;;;;10390376;28;20233;-74
2022/03/03 06:54:39;;;;;;;10.53;9.43;;;-0.10;28.20;;;;;;10384213;28;20225;-74
2022/03/03 06:59:43;;;;;;;12.80;9.63;;;0.00;28.60;;;;;;10386969;28;20222;-74
2022/03/03 07:04:49;;;;;;;12.57;10.17;;;0.10;29.10;;;;;;10378915;28;20235;-74
2022/03/03 07:09:55;;;;;;;11.63;9.10;;;0.20;29.30;;;;;;10386462;28;20816;-74
2022/03/03 07:14:58;;;;;;;11.73;9.47;;;0.30;29.10;;;;;;10391790;28;20228;-74
2022/03/03 07:20:05;;;;;;;10.70;9.40;;;0.40;28.80;;;;;;10391438;28;20217;-75
2022/03/03 07:25:14;;;;;;;11.73;10.47;;;0.50;29.30;;;;;;10379952;28;20702;-75
2022/03/03 07:30:18;;;;;;;11.50;10.10;;;0.60;29.60;;;;;;10390886;28;20279;-74
2022/03/03 07:35:25;;;;;;;11.87;9.70;;;0.70;29.40;;;;;;10386033;28;20412;-74
2022/03/03 07:40:31;;;;;;;12.07;9.87;;;0.90;29.80;;;;;;10392070;28;20230;-73
2022/03/03 07:45:35;;;;;;;13.53;10.67;;;1.00;29.80;;;;;;10388588;28;20273;-73
2022/03/03 07:50:40;;;;;;;12.70;10.47;;;1.10;29.50;;;;;;10399996;28;20230;-73
2022/03/03 07:55:46;;;;;;;14.70;10.27;;;1.20;29.60;;;;;;10396152;28;20217;-73
2022/03/03 08:00:51;;;;;;;13.63;11.23;;;1.40;29.90;;;;;;10383682;28;20233;-73
2022/03/03 08:05:57;;;;;;;10.97;9.80;;;1.50;29.80;;;;;;10382281;28;20239;-73
2022/03/03 08:11:05;;;;;;;12.67;10.80;;;1.60;29.90;;;;;;10386163;28;20225;-73
2022/03/03 08:16:08;;;;;;;13.33;11.20;;;1.90;30.40;;;;;;10374992;28;20232;-73
2022/03/03 08:21:13;;;;;;;12.13;10.93;;;2.20;30.20;;;;;;10394135;28;20635;-72
2022/03/03 08:26:18;;;;;;;13.57;11.97;;;2.40;30.40;;;;;;10380885;28;20245;-72
2022/03/03 08:31:37;;;;;;;13.60;11.63;;;2.60;30.60;;;;;;10386747;28;20248;-74
2022/03/03 08:36:46;;;;;;;13.77;12.33;;;3.00;31.70;;;;;;10387407;28;20221;-74
2022/03/03 08:41:56;;;;;;;13.20;11.77;;;3.20;31.10;;;;;;10392678;28;20233;-74
2022/03/03 08:47:21;;;;;;;14.53;12.57;;;3.50;31.10;;;;;;10394312;28;22137;-74
2022/03/03 08:52:24;;;;;;;13.80;12.40;;;3.80;30.40;;;;;;10388557;28;20872;-74
2022/03/03 08:57:29;;;;;;;15.37;13.30;;;4.10;30.60;;;;;;10396388;28;20228;-74
2022/03/03 09:02:33;;;;;;;13.27;11.93;;;4.40;30.80;;;;;;10401584;28;20236;-73
2022/03/03 09:07:36;;;;;;;14.10;12.60;;;4.70;30.50;;;;;;10401890;28;20225;-74
2022/03/03 09:12:41;;;;;;;14.20;12.80;;;5.00;30.30;;;;;;10390272;28;20244;-74
2022/03/03 09:17:45;;;;;;;14.23;12.73;;;5.30;30.30;;;;;;10395401;28;20218;-73
2022/03/03 09:22:48;;;;;;;14.20;12.80;;;5.60;30.20;;;;;;10390173;28;20230;-73
2022/03/03 09:27:53;;;;;;;14.47;12.97;;;5.90;30.00;;;;;;10380163;28;20780;-74
2022/03/03 09:32:56;;;;;;;15.53;13.00;;;6.20;30.10;;;;;;10388593;28;20735;-72
2022/03/03 09:38:00;;;;;;;16.43;13.97;;;6.40;29.80;;;;;;10374853;28;20775;-73
2022/03/03 09:43:06;;;;;;;14.97;13.37;;;6.70;29.80;;;;;;10378004;28;20226;-74
2022/03/03 09:48:10;;;;;;;15.87;14.27;;;7.00;29.80;;;;;;10380885;28;20237;-75
2022/03/03 09:53:15;;;;;;;14.23;12.93;;;7.30;29.70;;;;;;10379516;28;20749;-74
2022/03/03 09:58:20;;;;;;;15.13;13.63;;;7.50;29.30;;;;;;10375152;28;20245;-75
2022/03/03 10:03:23;;;;;;;13.57;12.17;;;7.70;29.30;;;;;;10372174;28;21137;-74
2022/03/03 10:08:28;;;;;;;14.70;11.90;;;8.00;29.00;;;;;;10373302;28;20345;-74
2022/03/03 10:13:45;;;;;;;13.97;12.50;;;8.30;28.60;;;;;;10376457;28;20232;-74
2022/03/03 10:19:10;;;;;;;13.13;11.73;;;8.50;28.30;;;;;;10370827;28;20653;-75
2022/03/03 10:24:21;;;;;;;12.83;11.53;;;8.70;28.20;;;;;;10366727;28;20232;-76
2022/03/03 10:29:27;;;;;;;11.80;10.70;;;9.00;28.20;;;;;;10381249;28;20317;-75
2022/03/03 10:34:32;;;;;;;11.63;10.53;;;9.20;27.90;;;;;;10387063;28;20230;-74
2022/03/03 10:39:43;;;;;;;11.70;10.60;;;9.40;27.80;;;;;;10399765;28;20232;-75
2022/03/03 10:44:49;;;;;;;12.50;10.27;;;9.70;27.10;;;;;;10384272;28;20230;-76
2022/03/03 10:49:54;;;;;;;10.50;9.40;;;9.90;27.10;;;;;;10387873;28;20224;-76
2022/03/03 10:55:00;;;;;;;9.63;8.73;;;10.10;26.30;;;;;;10396964;28;20709;-75
2022/03/03 11:00:09;;;;;;;8.93;8.03;;;10.30;26.10;;;;;;10386897;28;20233;-75
2022/03/03 11:05:14;;;;;;;9.03;8.13;;;10.50;25.00;;;;;;10391797;28;20228;-75
2022/03/03 11:10:19;;;;;;;9.77;8.83;;;10.60;25.10;;;;;;10396850;28;20225;-75
2022/03/03 11:15:25;;;;;;;10.33;9.33;;;10.80;24.90;;;;;;10388793;28;20233;-74
2022/03/03 11:20:31;;;;;;;10.57;9.17;;;10.90;24.50;;;;;;10386643;28;20230;-76
2022/03/03 11:25:36;;;;;;;11.10;10.03;;;11.00;25.00;;;;;;10390697;28;20736;-75
2022/03/03 11:30:43;;;;;;;10.33;9.43;;;11.10;24.40;;;;;;10395148;28;20245;-75
2022/03/03 11:35:48;;;;;;;9.83;8.83;;;11.20;24.40;;;;;;10393649;28;20226;-72
2022/03/03 11:40:58;;;;;;;9.10;8.13;;;11.30;24.10;;;;;;10388956;28;20230;-73
2022/03/03 11:46:03;;;;;;;10.40;9.37;;;11.40;22.90;;;;;;10393136;28;20701;-74
2022/03/03 11:51:33;;;;;;;7.03;6.33;;;11.50;23.50;;;;;;10391390;28;20228;-75
2022/03/03 11:57:27;;;;;;;7.40;6.70;;;11.50;21.80;;;;;;10387937;28;20232;-75
2022/03/03 12:02:34;;;;;;;6.27;5.67;;;11.60;21.50;;;;;;10391716;28;20613;-75
2022/03/03 12:07:37;;;;;;;5.43;4.93;;;11.70;22.10;;;;;;10387783;28;20279;-73
2022/03/03 12:12:40;;;;;;;5.60;5.10;;;11.70;22.30;;;;;;10389235;28;20234;-73
2022/03/03 12:17:46;;;;;;;6.30;5.10;;;11.70;22.00;;;;;;10389030;28;20680;-73
2022/03/03 12:23:07;;;;;;;8.27;6.70;;;11.70;21.00;;;;;;10389269;28;20221;-73
2022/03/03 12:28:15;;;;;;;6.50;5.90;;;11.80;19.80;;;;;;10395008;28;20230;-72
2022/03/03 12:33:23;;;;;;;6.07;5.47;;;11.80;20.20;;;;;;10378789;28;20236;-73
2022/03/03 12:38:27;;;;;;;6.33;5.70;;;11.80;20.30;;;;;;10392767;28;20240;-73
2022/03/03 12:43:37;;;;;;;7.00;6.30;;;11.80;21.10;;;;;;10391774;28;20226;-73
2022/03/03 12:48:42;;;;;;;7.10;6.40;;;11.80;19.80;;;;;;10391884;28;20272;-75
2022/03/03 12:53:47;;;;;;;7.73;7.00;;;11.80;20.90;;;;;;10387790;28;20214;-76
2022/03/03 12:58:51;;;;;;;7.90;7.10;;;11.80;21.20;;;;;;10384104;28;20280;-76
2022/03/03 13:03:55;;;;;;;8.50;7.70;;;11.80;21.40;;;;;;10398494;28;20232;-77
2022/03/03 13:08:59;;;;;;;10.47;7.80;;;11.90;21.10;;;;;;10383857;28;20233;-74
2022/03/03 13:14:06;;;;;;;11.63;8.80;;;11.90;21.50;;;;;;10384431;28;20238;-75
2022/03/03 13:19:13;;;;;;;10.10;9.10;;;11.90;21.20;;;;;;10381498;28;20331;-72
2022/03/03 13:24:25;;;;;;;10.03;9.03;;;11.90;21.00;;;;;;10386479;28;20287;-72
2022/03/03 13:29:30;;;;;;;9.60;8.37;;;12.00;20.00;;;;;;10393107;28;20575;-74
2022/03/03 13:34:36;;;;;;;11.60;8.70;;;12.00;20.90;;;;;;10394526;28;20595;-75
2022/03/03 13:39:39;;;;;;;9.53;8.43;;;12.00;20.80;;;;;;10394885;28;20240;-72
2022/03/03 13:44:58;;;;;;;9.53;8.63;;;12.00;21.20;;;;;;10401080;28;20232;-72
2022/03/03 13:50:03;;;;;;;10.33;9.23;;;12.10;20.00;;;;;;10397159;28;20228;-72
2022/03/03 13:55:16;;;;;;;9.37;8.40;;;12.10;20.30;;;;;;10403267;28;20702;-72
2022/03/03 14:00:22;;;;;;;9.40;8.50;;;12.20;20.00;;;;;;10392475;28;20226;-72
2022/03/03 14:05:38;;;;;;;9.97;8.97;;;12.20;20.90;;;;;;10386360;28;20240;-72
2022/03/03 14:10:56;;;;;;;9.57;8.67;;;12.30;20.10;;;;;;10382872;28;20236;-72
2022/03/03 14:16:00;;;;;;;11.50;9.10;;;12.40;20.20;;;;;;10388443;28;20218;-72
2022/03/03 14:21:06;;;;;;;9.03;8.13;;;12.50;20.80;;;;;;10391264;28;20229;-72
2022/03/03 14:26:11;;;;;;;10.00;8.67;;;12.60;20.90;;;;;;10392171;28;20897;-74
2022/03/03 14:31:14;;;;;;;9.17;8.27;;;12.70;20.40;;;;;;10399991;28;20831;-75
2022/03/03 14:36:20;;;;;;;9.60;8.63;;;12.70;20.40;;;;;;10394178;28;20225;-75
2022/03/03 14:41:23;;;;;;;9.10;8.20;;;12.80;20.50;;;;;;10397968;28;20244;-75
2022/03/03 14:46:27;;;;;;;8.97;8.07;;;12.80;20.40;;;;;;10396195;28;20728;-72
2022/03/03 14:51:33;;;;;;;8.67;7.87;;;12.90;20.50;;;;;;10394848;28;20600;-72
2022/03/03 14:56:36;;;;;;;9.27;8.27;;;12.90;20.50;;;;;;10397233;28;20263;-73
2022/03/03 15:01:40;;;;;;;9.40;8.53;;;12.90;20.50;;;;;;10393122;28;20256;-73
2022/03/03 15:06:47;;;;;;;8.80;7.90;;;12.90;20.50;;;;;;10388739;28;20284;-72
2022/03/03 15:11:50;;;;;;;9.30;8.40;;;12.90;20.50;;;;;;10393633;28;20278;-72
2022/03/03 15:16:53;;;;;;;8.40;7.60;;;12.90;20.50;;;;;;10394848;28;20228;-72
2022/03/03 15:21:58;;;;;;;9.50;8.07;;;12.90;20.50;;;;;;10391890;28;20222;-72
2022/03/03 15:27:01;;;;;;;8.97;8.07;;;12.90;20.50;;;;;;10390158;28;20233;-72
2022/03/03 15:32:07;;;;;;;8.53;7.73;;;12.80;20.40;;;;;;10383760;28;20309;-72
2022/03/03 15:37:12;;;;;;;8.50;7.60;;;12.90;20.50;;;;;;10390146;28;20797;-72
2022/03/03 15:42:17;;;;;;;10.20;7.73;;;12.80;20.40;;;;;;10384289;28;20234;-72
2022/03/03 15:47:20;;;;;;;10.10;8.00;;;12.80;20.40;;;;;;10384179;28;20221;-75
2022/03/03 15:52:25;;;;;;;11.17;9.30;;;12.80;21.00;;;;;;10381827;28;20261;-74
2022/03/03 15:57:28;;;;;;;9.60;8.60;;;12.80;20.50;;;;;;10378587;28;20228;-75
2022/03/03 16:02:31;;;;;;;13.77;12.37;;;12.70;20.40;;;;;;10381991;28;20241;-73
2022/03/03 16:07:36;;;;;;;13.83;12.43;;;12.70;20.40;;;;;;10384053;28;20233;-73
2022/03/03 16:12:40;;;;;;;17.47;14.67;;;12.60;20.30;;;;;;10382012;28;20229;-73
2022/03/03 16:17:43;;;;;;;11.87;10.47;;;12.50;20.20;;;;;;10387362;28;20557;-73
2022/03/03 16:22:48;;;;;;;13.33;11.10;;;12.50;20.20;;;;;;10375290;28;20628;-72
2022/03/03 16:27:51;;;;;;;10.10;8.87;;;12.40;20.40;;;;;;10381986;28;20252;-72
2022/03/03 16:32:54;;;;;;;9.60;8.70;;;12.30;21.30;;;;;;10389192;28;20236;-72
2022/03/03 16:37:59;;;;;;;11.90;10.67;;;12.20;21.10;;;;;;10394908;28;20219;-74
2022/03/03 16:43:03;;;;;;;15.90;13.87;;;12.20;20.80;;;;;;10394189;28;20228;-74
2022/03/03 16:48:06;;;;;;;11.87;9.67;;;12.10;21.10;;;;;;10399987;28;20261;-74
2022/03/03 16:53:10;;;;;;;11.27;8.70;;;12.00;20.90;;;;;;10388882;28;20235;-75
2022/03/03 16:58:14;;;;;;;9.60;8.60;;;11.80;20.40;;;;;;10389698;28;20236;-75
2022/03/03 17:03:17;;;;;;;17.67;15.80;;;11.70;20.50;;;;;;10384165;28;20236;-75
2022/03/03 17:08:24;;;;;;;14.53;12.90;;;11.60;20.30;;;;;;10382563;28;20312;-74
2022/03/03 17:13:29;;;;;;;13.53;12.13;;;11.40;19.90;;;;;;10398433;28;20236;-75
2022/03/03 17:18:32;;;;;;;10.23;9.23;;;11.30;20.00;;;;;;10393533;28;20600;-75
2022/03/03 17:23:37;;;;;;;8.10;7.40;;;11.20;20.00;;;;;;10398137;28;20712;-72
2022/03/03 17:28:41;;;;;;;9.67;8.33;;;11.10;19.70;;;;;;10396356;28;20600;-72
2022/03/03 17:33:44;;;;;;;11.97;10.77;;;11.00;20.10;;;;;;10394749;28;21176;-72
2022/03/03 17:38:49;;;;;;;12.47;11.17;;;10.90;20.00;;;;;;10402779;28;20239;-72
2022/03/03 17:43:53;;;;;;;9.93;8.50;;;10.70;19.80;;;;;;10395514;28;20224;-72
2022/03/03 17:48:56;;;;;;;12.73;9.97;;;10.50;19.90;;;;;;10396953;28;20242;-72
2022/03/03 17:54:01;;;;;;;9.23;8.27;;;10.40;20.00;;;;;;10397784;28;20222;-72
2022/03/03 17:59:04;;;;;;;11.37;9.33;;;10.20;19.90;;;;;;10386475;28;20237;-74
2022/03/03 18:04:08;;;;;;;14.53;9.70;;;10.10;20.10;;;;;;10371293;28;20233;-75
2022/03/03 18:09:13;;;;;;;11.57;10.13;;;10.00;20.10;;;;;;10346441;28;20324;-75
2022/03/03 18:14:17;;;;;;;12.60;10.30;;;9.80;20.60;;;;;;10367849;28;20246;-72
2022/03/03 18:19:20;;;;;;;11.13;8.57;;;9.70;20.80;;;;;;10383342;28;20240;-73
2022/03/03 18:24:25;;;;;;;12.23;9.47;;;9.60;20.90;;;;;;10372247;28;20313;-73
2022/03/03 18:29:28;;;;;;;15.27;12.03;;;9.50;20.80;;;;;;10366444;28;20228;-73
2022/03/03 18:34:31;;;;;;;16.87;14.37;;;9.30;20.90;;;;;;10366058;28;20880;-73
2022/03/03 18:39:36;;;;;;;13.67;10.83;;;9.10;20.90;;;;;;10369366;28;20237;-73
2022/03/03 18:44:39;;;;;;;10.63;9.20;;;9.00;21.50;;;;;;10369969;28;20230;-73
2022/03/03 18:49:43;;;;;;;10.30;9.20;;;8.90;21.20;;;;;;10373709;28;21022;-73
2022/03/03 18:54:48;;;;;;;7.93;7.13;;;8.70;21.10;;;;;;10372560;28;20236;-73
2022/03/03 18:59:51;;;;;;;9.20;7.43;;;8.60;21.30;;;;;;10379811;28;20235;-72
2022/03/03 19:04:55;;;;;;;11.30;10.10;;;8.40;21.20;;;;;;10374363;28;20229;-73
2022/03/03 19:09:59;;;;;;;9.63;8.73;;;8.30;21.20;;;;;;10374731;28;20229;-72
2022/03/03 19:15:03;;;;;;;10.87;9.87;;;8.20;21.30;;;;;;10369266;28;20252;-72
2022/03/03 19:20:09;;;;;;;11.83;10.73;;;8.10;21.40;;;;;;10373213;28;20236;-72
2022/03/03 19:25:14;;;;;;;12.07;10.50;;;8.00;21.40;;;;;;10369436;28;20237;-72
2022/03/03 19:30:17;;;;;;;14.00;12.57;;;7.90;21.30;;;;;;10370250;28;20252;-73
2022/03/03 19:35:25;;;;;;;12.47;10.70;;;7.80;21.30;;;;;;10356874;28;20225;-73
2022/03/03 19:40:35;;;;;;;12.40;11.10;;;7.70;21.30;;;;;;10361837;28;20272;-73
2022/03/03 19:45:38;;;;;;;12.87;10.50;;;7.50;21.40;;;;;;10363615;28;20312;-73
2022/03/03 19:50:41;;;;;;;16.17;12.97;;;7.40;21.50;;;;;;10354753;28;20226;-73
2022/03/03 19:55:46;;;;;;;16.40;14.03;;;7.40;21.60;;;;;;10366569;28;20238;-74
2022/03/03 20:00:50;;;;;;;15.10;13.17;;;7.30;21.50;;;;;;10362478;28;20328;-73
2022/03/03 20:05:55;;;;;;;13.63;12.23;;;7.10;21.40;;;;;;10363776;28;20217;-73
2022/03/03 20:11:02;;;;;;;14.20;12.40;;;6.90;21.50;;;;;;10366164;28;20236;-73
2022/03/03 20:16:06;;;;;;;14.00;11.83;;;6.80;21.70;;;;;;10363098;28;20352;-73
2022/03/03 20:21:09;;;;;;;13.00;10.93;;;6.70;21.60;;;;;;10358341;28;20613;-73
2022/03/03 20:26:14;;;;;;;11.77;10.60;;;6.50;21.60;;;;;;10355901;28;20716;-73
2022/03/03 20:31:18;;;;;;;12.93;11.63;;;6.30;21.90;;;;;;10360696;28;20240;-73
2022/03/03 20:36:24;;;;;;;12.53;10.53;;;6.20;21.90;;;;;;10361706;28;20310;-73
2022/03/03 20:41:29;;;;;;;15.07;12.93;;;6.10;22.10;;;;;;10361482;28;20447;-73
2022/03/03 20:46:32;;;;;;;14.37;12.87;;;6.00;22.30;;;;;;10369078;28;20927;-73
2022/03/03 20:51:38;;;;;;;15.37;13.77;;;6.00;22.50;;;;;;10369256;28;20763;-73
2022/03/03 20:56:43;;;;;;;14.93;12.63;;;5.90;22.30;;;;;;10376352;28;20309;-73
2022/03/03 21:01:49;;;;;;;19.10;15.90;;;5.80;22.40;;;;;;10372024;28;20320;-73
2022/03/03 21:06:53;;;;;;;20.33;16.17;;;5.70;22.20;;;;;;10378396;28;20306;-73
2022/03/03 21:12:03;;;;;;;17.70;14.80;;;5.60;22.40;;;;;;10379772;28;20234;-73
2022/03/03 21:17:06;;;;;;;14.40;12.73;;;5.50;22.80;;;;;;10370503;28;20218;-72
2022/03/03 21:22:10;;;;;;;17.43;14.73;;;5.40;22.80;;;;;;10377766;28;20979;-73
2022/03/03 21:27:15;;;;;;;15.17;13.57;;;5.30;22.70;;;;;;10373046;28;20225;-73
2022/03/03 21:32:18;;;;;;;17.97;15.20;;;5.30;22.90;;;;;;10370862;28;20245;-73
2022/03/03 21:37:21;;;;;;;17.90;14.93;;;5.20;22.80;;;;;;10373756;28;20296;-73
2022/03/03 21:42:29;;;;;;;19.27;16.43;;;5.20;22.90;;;;;;10373908;28;20296;-73
2022/03/03 21:47:36;;;;;;;16.60;14.87;;;5.20;22.90;;;;;;10373673;28;20218;-73
2022/03/03 21:52:39;;;;;;;18.73;15.03;;;5.10;22.90;;;;;;10369949;28;20230;-73
2022/03/03 21:57:45;;;;;;;17.10;15.27;;;5.10;22.90;;;;;;10379767;28;20251;-73
2022/03/03 22:02:50;;;;;;;16.73;14.33;;;5.10;23.10;;;;;;10376204;28;20648;-73
2022/03/03 22:07:54;;;;;;;19.67;13.77;;;5.00;23.00;;;;;;10371857;28;20627;-73
2022/03/03 22:12:59;;;;;;;14.90;12.77;;;5.00;23.00;;;;;;10373522;28;20799;-73
2022/03/03 22:18:03;;;;;;;15.07;11.97;;;4.90;23.10;;;;;;10373635;28;20963;-73
2022/03/03 22:23:07;;;;;;;15.07;12.30;;;4.80;23.10;;;;;;10372070;28;20228;-73
2022/03/03 22:28:12;;;;;;;12.33;10.63;;;4.80;23.10;;;;;;10375859;28;20590;-73
2022/03/03 22:33:17;;;;;;;13.40;11.63;;;4.80;23.40;;;;;;10373174;28;20224;-73
2022/03/03 22:38:21;;;;;;;13.47;11.13;;;4.70;23.40;;;;;;10373052;28;20224;-73
2022/03/03 22:43:26;;;;;;;15.07;12.23;;;4.70;23.30;;;;;;10374104;28;20225;-73
2022/03/03 22:48:30;;;;;;;13.97;11.77;;;4.70;23.60;;;;;;10375370;28;20240;-73
2022/03/03 22:53:34;;;;;;;14.53;12.77;;;4.70;23.40;;;;;;10376345;28;20234;-74
2022/03/03 22:58:39;;;;;;;14.30;12.80;;;4.70;23.30;;;;;;10378594;28;20230;-73
2022/03/03 23:09:04;;;;;;;15.07;12.43;;;4.30;23.20;;;;;;10381227;28;20237;-73
2022/03/03 23:14:10;;;;;;;14.43;11.23;;;4.10;23.40;;;;;;10375352;28;20237;-73
2022/03/03 23:19:13;;;;;;;10.67;9.53;;;4.00;23.60;;;;;;10378561;28;20243;-74
2022/03/03 23:24:17;;;;;;;11.90;10.60;;;4.00;23.60;;;;;;10378564;28;20254;-73
2022/03/03 23:29:22;;;;;;;12.30;10.33;;;4.00;23.60;;;;;;10379063;28;20618;-73
2022/03/03 23:34:26;;;;;;;14.80;12.53;;;4.00;23.90;;;;;;10372767;28;20236;-73
2022/03/03 23:39:29;;;;;;;10.80;9.57;;;4.00;23.80;;;;;;10374644;28;20312;-74
2022/03/03 23:44:34;;;;;;;15.47;12.40;;;4.00;23.70;;;;;;10375066;28;20230;-74
2022/03/03 23:49:37;;;;;;;12.53;10.93;;;3.90;23.80;;;;;;10373714;28;20233;-73
2022/03/03 23:54:41;;;;;;;13.73;11.83;;;3.80;23.40;;;;;;10380050;28;20309;-74
2022/03/03 23:59:46;;;;;;;13.93;11.43;;;3.80;23.70;;;;;;10373933;28;20819;-74
